sensor_id;sensor_type;location;lat;lon;timestamp;P1;durP1;ratioP1;P2;durP2;ratioP2
63112;SDS011;49206;48.020;21.378;2023-04-12T00:00:24;12.82;;;6.90;;
63112;SDS011;49206;48.020;21.378;2023-04-12T00:01:27;13.52;;;6.85;;
63112;SDS011;49206;48.020;21.378;2023-04-12T00:02:30;16.40;;;6.45;;
63112;SDS011;49206;48.020;21.378;2023-04-12T00:03:37;11.40;;;6.22;;
63112;SDS011;49206;48.020;21.378;2023-04-12T00:04:40;8.90;;;5.70;;
63112;SDS011;49206;48.020;21.378;2023-04-12T00:05:51;10.18;;;6.15;;
63112;SDS011;49206;48.020;21.378;2023-04-12T00:07:04;8.35;;;5.72;;
63112;SDS011;49206;48.020;21.378;2023-04-12T00:08:07;7.00;;;4.80;;
63112;SDS011;49206;48.020;21.378;2023-04-12T00:09:19;7.70;;;5.10;;
63112;SDS011;49206;48.020;21.378;2023-04-12T00:12:08;8.30;;;4.82;;
63112;SDS011;49206;48.020;21.378;2023-04-12T00:13:10;10.13;;;5.60;;
63112;SDS011;49206;48.020;21.378;2023-04-12T00:14:12;10.70;;;5.43;;
63112;SDS011;49206;48.020;21.378;2023-04-12T00:15:15;11.52;;;5.43;;
63112;SDS011;49206;48.020;21.378;2023-04-12T00:16:18;10.82;;;6.25;;
63112;SDS011;49206;48.020;21.378;2023-04-12T00:17:20;11.45;;;6.75;;
63112;SDS011;49206;48.020;21.378;2023-04-12T00:18:23;12.05;;;6.72;;
63112;SDS011;49206;48.020;21.378;2023-04-12T00:19:26;14.65;;;8.13;;
63112;SDS011;49206;48.020;21.378;2023-04-12T00:20:32;14.80;;;6.65;;
63112;SDS011;49206;48.020;21.378;2023-04-12T00:21:34;11.02;;;5.43;;
63112;SDS011;49206;48.020;21.378;2023-04-12T00:22:37;9.68;;;4.88;;
63112;SDS011;49206;48.020;21.378;2023-04-12T00:23:40;9.15;;;5.55;;
63112;SDS011;49206;48.020;21.378;2023-04-12T00:24:43;8.18;;;4.90;;
63112;SDS011;49206;48.020;21.378;2023-04-12T00:25:46;8.85;;;4.63;;
63112;SDS011;49206;48.020;21.378;2023-04-12T00:26:48;7.85;;;4.57;;
63112;SDS011;49206;48.020;21.378;2023-04-12T00:27:51;6.90;;;4.47;;
63112;SDS011;49206;48.020;21.378;2023-04-12T00:28:55;6.18;;;4.50;;
63112;SDS011;49206;48.020;21.378;2023-04-12T00:29:58;7.00;;;4.38;;
63112;SDS011;49206;48.020;21.378;2023-04-12T00:31:00;8.88;;;5.28;;
63112;SDS011;49206;48.020;21.378;2023-04-12T00:32:03;6.38;;;4.40;;
63112;SDS011;49206;48.020;21.378;2023-04-12T00:33:07;7.80;;;4.53;;
63112;SDS011;49206;48.020;21.378;2023-04-12T00:34:09;7.07;;;4.53;;
63112;SDS011;49206;48.020;21.378;2023-04-12T00:35:12;6.95;;;4.50;;
63112;SDS011;49206;48.020;21.378;2023-04-12T00:36:14;11.55;;;5.10;;
63112;SDS011;49206;48.020;21.378;2023-04-12T00:37:17;9.63;;;5.43;;
63112;SDS011;49206;48.020;21.378;2023-04-12T00:38:20;6.35;;;4.35;;
63112;SDS011;49206;48.020;21.378;2023-04-12T00:39:22;9.05;;;4.85;;
63112;SDS011;49206;48.020;21.378;2023-04-12T00:40:25;5.57;;;4.03;;
63112;SDS011;49206;48.020;21.378;2023-04-12T00:41:27;6.93;;;4.82;;
63112;SDS011;49206;48.020;21.378;2023-04-12T00:42:30;6.30;;;4.22;;
63112;SDS011;49206;48.020;21.378;2023-04-12T00:43:33;6.47;;;4.50;;
63112;SDS011;49206;48.020;21.378;2023-04-12T00:44:36;7.05;;;4.53;;
63112;SDS011;49206;48.020;21.378;2023-04-12T00:45:38;7.55;;;4.90;;
63112;SDS011;49206;48.020;21.378;2023-04-12T00:46:44;6.47;;;4.65;;
63112;SDS011;49206;48.020;21.378;2023-04-12T00:47:48;7.20;;;4.75;;
63112;SDS011;49206;48.020;21.378;2023-04-12T00:48:51;9.10;;;5.38;;
63112;SDS011;49206;48.020;21.378;2023-04-12T00:49:53;8.57;;;4.93;;
63112;SDS011;49206;48.020;21.378;2023-04-12T00:50:56;8.35;;;4.32;;
63112;SDS011;49206;48.020;21.378;2023-04-12T00:52:08;6.28;;;4.28;;
63112;SDS011;49206;48.020;21.378;2023-04-12T00:53:12;5.47;;;3.55;;
63112;SDS011;49206;48.020;21.378;2023-04-12T00:54:15;5.03;;;3.35;;
63112;SDS011;49206;48.020;21.378;2023-04-12T00:55:19;4.53;;;2.95;;
63112;SDS011;49206;48.020;21.378;2023-04-12T00:56:23;2.15;;;1.95;;
63112;SDS011;49206;48.020;21.378;2023-04-12T00:57:33;2.65;;;1.20;;
63112;SDS011;49206;48.020;21.378;2023-04-12T00:58:38;0.90;;;0.90;;
63112;SDS011;49206;48.020;21.378;2023-04-12T00:59:41;0.98;;;0.85;;
63112;SDS011;49206;48.020;21.378;2023-04-12T01:00:43;1.20;;;0.90;;
63112;SDS011;49206;48.020;21.378;2023-04-12T01:01:51;0.82;;;0.80;;
63112;SDS011;49206;48.020;21.378;2023-04-12T01:02:57;0.70;;;0.70;;
63112;SDS011;49206;48.020;21.378;2023-04-12T01:04:03;0.75;;;0.70;;
63112;SDS011;49206;48.020;21.378;2023-04-12T01:05:06;1.15;;;0.70;;
63112;SDS011;49206;48.020;21.378;2023-04-12T01:07:43;0.73;;;0.73;;
63112;SDS011;49206;48.020;21.378;2023-04-12T01:10:02;0.55;;;0.55;;
63112;SDS011;49206;48.020;21.378;2023-04-12T01:11:16;0.77;;;0.77;;
63112;SDS011;49206;48.020;21.378;2023-04-12T01:14:02;0.68;;;0.68;;
63112;SDS011;49206;48.020;21.378;2023-04-12T01:15:13;0.63;;;0.60;;
63112;SDS011;49206;48.020;21.378;2023-04-12T01:16:23;0.85;;;0.85;;
63112;SDS011;49206;48.020;21.378;2023-04-12T01:17:56;1.00;;;0.40;;
63112;SDS011;49206;48.020;21.378;2023-04-12T01:19:01;0.40;;;0.40;;
63112;SDS011;49206;48.020;21.378;2023-04-12T01:20:13;0.47;;;0.47;;
63112;SDS011;49206;48.020;21.378;2023-04-12T01:24:28;0.50;;;0.50;;
63112;SDS011;49206;48.020;21.378;2023-04-12T01:26:09;0.75;;;0.75;;
63112;SDS011;49206;48.020;21.378;2023-04-12T01:27:21;0.50;;;0.50;;
63112;SDS011;49206;48.020;21.378;2023-04-12T01:28:34;0.40;;;0.40;;
63112;SDS011;49206;48.020;21.378;2023-04-12T01:29:39;1.05;;;1.05;;
63112;SDS011;49206;48.020;21.378;2023-04-12T01:30:43;0.55;;;0.52;;
63112;SDS011;49206;48.020;21.378;2023-04-12T01:32:58;0.40;;;0.40;;
63112;SDS011;49206;48.020;21.378;2023-04-12T01:34:03;0.52;;;0.50;;
63112;SDS011;49206;48.020;21.378;2023-04-12T01:35:07;0.70;;;0.70;;
63112;SDS011;49206;48.020;21.378;2023-04-12T01:36:11;2.67;;;0.80;;
63112;SDS011;49206;48.020;21.378;2023-04-12T01:37:15;0.25;;;0.25;;
63112;SDS011;49206;48.020;21.378;2023-04-12T01:38:21;2.67;;;0.65;;
63112;SDS011;49206;48.020;21.378;2023-04-12T01:39:24;0.60;;;0.60;;
63112;SDS011;49206;48.020;21.378;2023-04-12T01:40:28;0.52;;;0.52;;
63112;SDS011;49206;48.020;21.378;2023-04-12T01:41:31;0.55;;;0.55;;
63112;SDS011;49206;48.020;21.378;2023-04-12T01:42:34;0.70;;;0.70;;
63112;SDS011;49206;48.020;21.378;2023-04-12T01:43:40;0.70;;;0.70;;
63112;SDS011;49206;48.020;21.378;2023-04-12T01:44:43;0.65;;;0.63;;
63112;SDS011;49206;48.020;21.378;2023-04-12T01:45:46;0.60;;;0.60;;
63112;SDS011;49206;48.020;21.378;2023-04-12T01:46:48;1.33;;;0.50;;
63112;SDS011;49206;48.020;21.378;2023-04-12T01:47:51;0.85;;;0.57;;
63112;SDS011;49206;48.020;21.378;2023-04-12T01:48:54;2.05;;;0.60;;
63112;SDS011;49206;48.020;21.378;2023-04-12T01:51:26;0.63;;;0.63;;
63112;SDS011;49206;48.020;21.378;2023-04-12T01:52:54;0.98;;;0.88;;
63112;SDS011;49206;48.020;21.378;2023-04-12T01:54:11;0.50;;;0.50;;
63112;SDS011;49206;48.020;21.378;2023-04-12T01:55:14;0.50;;;0.50;;
63112;SDS011;49206;48.020;21.378;2023-04-12T01:56:17;1.00;;;0.75;;
63112;SDS011;49206;48.020;21.378;2023-04-12T01:57:21;0.63;;;0.60;;
63112;SDS011;49206;48.020;21.378;2023-04-12T01:58:24;1.35;;;0.50;;
63112;SDS011;49206;48.020;21.378;2023-04-12T01:59:31;0.98;;;0.45;;
63112;SDS011;49206;48.020;21.378;2023-04-12T02:00:37;0.45;;;0.40;;
63112;SDS011;49206;48.020;21.378;2023-04-12T02:01:40;2.85;;;0.80;;
63112;SDS011;49206;48.020;21.378;2023-04-12T02:02:43;2.17;;;0.40;;
63112;SDS011;49206;48.020;21.378;2023-04-12T02:03:46;0.32;;;0.32;;
63112;SDS011;49206;48.020;21.378;2023-04-12T02:04:51;1.70;;;0.40;;
63112;SDS011;49206;48.020;21.378;2023-04-12T02:05:55;0.32;;;0.32;;
63112;SDS011;49206;48.020;21.378;2023-04-12T02:06:59;0.68;;;0.43;;
63112;SDS011;49206;48.020;21.378;2023-04-12T02:08:01;0.93;;;0.47;;
63112;SDS011;49206;48.020;21.378;2023-04-12T02:09:05;2.13;;;0.57;;
63112;SDS011;49206;48.020;21.378;2023-04-12T02:10:11;0.68;;;0.47;;
63112;SDS011;49206;48.020;21.378;2023-04-12T02:11:15;0.65;;;0.38;;
63112;SDS011;49206;48.020;21.378;2023-04-12T02:12:18;0.30;;;0.30;;
63112;SDS011;49206;48.020;21.378;2023-04-12T02:13:20;0.68;;;0.68;;
63112;SDS011;49206;48.020;21.378;2023-04-12T02:14:23;0.57;;;0.30;;
63112;SDS011;49206;48.020;21.378;2023-04-12T02:15:26;0.45;;;0.45;;
63112;SDS011;49206;48.020;21.378;2023-04-12T02:16:29;1.08;;;0.57;;
63112;SDS011;49206;48.020;21.378;2023-04-12T02:17:34;0.47;;;0.40;;
63112;SDS011;49206;48.020;21.378;2023-04-12T02:18:43;1.48;;;0.70;;
63112;SDS011;49206;48.020;21.378;2023-04-12T02:19:48;1.65;;;1.08;;
63112;SDS011;49206;48.020;21.378;2023-04-12T02:20:54;0.50;;;0.50;;
63112;SDS011;49206;48.020;21.378;2023-04-12T02:21:57;0.52;;;0.52;;
63112;SDS011;49206;48.020;21.378;2023-04-12T02:22:59;0.50;;;0.50;;
63112;SDS011;49206;48.020;21.378;2023-04-12T02:24:01;0.73;;;0.73;;
63112;SDS011;49206;48.020;21.378;2023-04-12T02:25:09;1.17;;;0.60;;
63112;SDS011;49206;48.020;21.378;2023-04-12T02:26:13;1.58;;;0.80;;
63112;SDS011;49206;48.020;21.378;2023-04-12T02:27:15;0.98;;;0.60;;
63112;SDS011;49206;48.020;21.378;2023-04-12T02:28:19;0.50;;;0.50;;
63112;SDS011;49206;48.020;21.378;2023-04-12T02:29:24;0.50;;;0.50;;
63112;SDS011;49206;48.020;21.378;2023-04-12T02:30:26;0.98;;;0.52;;
63112;SDS011;49206;48.020;21.378;2023-04-12T02:31:30;0.77;;;0.68;;
63112;SDS011;49206;48.020;21.378;2023-04-12T02:32:33;0.80;;;0.80;;
63112;SDS011;49206;48.020;21.378;2023-04-12T02:33:48;0.55;;;0.55;;
63112;SDS011;49206;48.020;21.378;2023-04-12T02:34:52;0.65;;;0.65;;
63112;SDS011;49206;48.020;21.378;2023-04-12T02:35:54;1.98;;;1.65;;
63112;SDS011;49206;48.020;21.378;2023-04-12T02:38:01;10.20;;;9.23;;
63112;SDS011;49206;48.020;21.378;2023-04-12T02:39:05;4.13;;;3.75;;
63112;SDS011;49206;48.020;21.378;2023-04-12T02:40:09;5.25;;;4.45;;
63112;SDS011;49206;48.020;21.378;2023-04-12T02:41:16;2.30;;;2.20;;
63112;SDS011;49206;48.020;21.378;2023-04-12T02:42:19;2.47;;;1.83;;
63112;SDS011;49206;48.020;21.378;2023-04-12T02:43:22;2.50;;;2.38;;
63112;SDS011;49206;48.020;21.378;2023-04-12T02:44:32;2.35;;;2.22;;
63112;SDS011;49206;48.020;21.378;2023-04-12T02:45:45;2.45;;;2.20;;
63112;SDS011;49206;48.020;21.378;2023-04-12T02:46:48;2.65;;;1.45;;
63112;SDS011;49206;48.020;21.378;2023-04-12T02:47:51;2.47;;;2.05;;
63112;SDS011;49206;48.020;21.378;2023-04-12T02:48:58;1.75;;;1.65;;
63112;SDS011;49206;48.020;21.378;2023-04-12T02:50:08;1.65;;;1.55;;
63112;SDS011;49206;48.020;21.378;2023-04-12T02:51:21;4.03;;;3.50;;
63112;SDS011;49206;48.020;21.378;2023-04-12T02:52:24;2.75;;;2.55;;
63112;SDS011;49206;48.020;21.378;2023-04-12T02:53:44;1.80;;;1.70;;
63112;SDS011;49206;48.020;21.378;2023-04-12T02:54:53;1.98;;;1.20;;
63112;SDS011;49206;48.020;21.378;2023-04-12T02:55:55;2.83;;;1.33;;
63112;SDS011;49206;48.020;21.378;2023-04-12T02:57:00;3.83;;;3.47;;
63112;SDS011;49206;48.020;21.378;2023-04-12T02:58:09;5.22;;;4.35;;
63112;SDS011;49206;48.020;21.378;2023-04-12T02:59:17;6.10;;;4.93;;
63112;SDS011;49206;48.020;21.378;2023-04-12T03:00:44;1.58;;;1.48;;
63112;SDS011;49206;48.020;21.378;2023-04-12T03:01:50;3.63;;;3.33;;
63112;SDS011;49206;48.020;21.378;2023-04-12T03:03:01;2.88;;;2.67;;
63112;SDS011;49206;48.020;21.378;2023-04-12T03:04:06;1.88;;;1.50;;
63112;SDS011;49206;48.020;21.378;2023-04-12T03:05:16;3.13;;;2.90;;
63112;SDS011;49206;48.020;21.378;2023-04-12T03:06:20;4.07;;;3.67;;
63112;SDS011;49206;48.020;21.378;2023-04-12T03:07:23;2.33;;;2.13;;
63112;SDS011;49206;48.020;21.378;2023-04-12T03:08:28;1.70;;;1.50;;
63112;SDS011;49206;48.020;21.378;2023-04-12T03:09:31;2.40;;;2.20;;
63112;SDS011;49206;48.020;21.378;2023-04-12T03:10:38;1.60;;;1.50;;
63112;SDS011;49206;48.020;21.378;2023-04-12T03:11:40;6.53;;;6.03;;
63112;SDS011;49206;48.020;21.378;2023-04-12T03:12:43;3.88;;;3.58;;
63112;SDS011;49206;48.020;21.378;2023-04-12T03:13:50;2.78;;;2.50;;
63112;SDS011;49206;48.020;21.378;2023-04-12T03:14:54;2.30;;;2.20;;
63112;SDS011;49206;48.020;21.378;2023-04-12T03:15:59;2.53;;;2.33;;
63112;SDS011;49206;48.020;21.378;2023-04-12T03:18:26;3.03;;;2.17;;
63112;SDS011;49206;48.020;21.378;2023-04-12T03:19:29;1.63;;;1.52;;
63112;SDS011;49206;48.020;21.378;2023-04-12T03:20:34;1.80;;;1.70;;
63112;SDS011;49206;48.020;21.378;2023-04-12T03:21:42;1.85;;;1.75;;
63112;SDS011;49206;48.020;21.378;2023-04-12T03:22:45;1.25;;;1.17;;
63112;SDS011;49206;48.020;21.378;2023-04-12T03:23:48;1.90;;;1.80;;
63112;SDS011;49206;48.020;21.378;2023-04-12T03:24:52;1.23;;;1.00;;
63112;SDS011;49206;48.020;21.378;2023-04-12T03:25:56;1.63;;;1.40;;
63112;SDS011;49206;48.020;21.378;2023-04-12T03:27:07;1.10;;;1.00;;
63112;SDS011;49206;48.020;21.378;2023-04-12T03:28:11;1.33;;;1.10;;
63112;SDS011;49206;48.020;21.378;2023-04-12T03:29:32;0.70;;;0.70;;
63112;SDS011;49206;48.020;21.378;2023-04-12T03:30:36;1.00;;;0.90;;
63112;SDS011;49206;48.020;21.378;2023-04-12T03:31:38;1.23;;;1.13;;
63112;SDS011;49206;48.020;21.378;2023-04-12T03:33:45;1.20;;;1.10;;
63112;SDS011;49206;48.020;21.378;2023-04-12T03:34:56;1.17;;;0.90;;
63112;SDS011;49206;48.020;21.378;2023-04-12T03:36:00;1.23;;;1.05;;
63112;SDS011;49206;48.020;21.378;2023-04-12T03:37:04;1.00;;;0.98;;
63112;SDS011;49206;48.020;21.378;2023-04-12T03:38:15;1.17;;;0.80;;
63112;SDS011;49206;48.020;21.378;2023-04-12T03:39:18;0.82;;;0.82;;
63112;SDS011;49206;48.020;21.378;2023-04-12T03:40:24;1.25;;;1.10;;
63112;SDS011;49206;48.020;21.378;2023-04-12T03:41:32;1.40;;;0.90;;
63112;SDS011;49206;48.020;21.378;2023-04-12T03:42:37;1.00;;;1.00;;
63112;SDS011;49206;48.020;21.378;2023-04-12T03:43:46;1.15;;;1.05;;
63112;SDS011;49206;48.020;21.378;2023-04-12T03:44:51;1.10;;;0.75;;
63112;SDS011;49206;48.020;21.378;2023-04-12T03:45:56;0.95;;;0.95;;
63112;SDS011;49206;48.020;21.378;2023-04-12T03:46:59;1.33;;;1.25;;
63112;SDS011;49206;48.020;21.378;2023-04-12T03:48:07;0.80;;;0.80;;
63112;SDS011;49206;48.020;21.378;2023-04-12T03:49:16;1.65;;;0.88;;
63112;SDS011;49206;48.020;21.378;2023-04-12T03:50:22;1.30;;;1.20;;
63112;SDS011;49206;48.020;21.378;2023-04-12T03:51:29;1.13;;;1.08;;
63112;SDS011;49206;48.020;21.378;2023-04-12T03:52:37;1.77;;;0.88;;
63112;SDS011;49206;48.020;21.378;2023-04-12T03:53:40;1.55;;;1.17;;
63112;SDS011;49206;48.020;21.378;2023-04-12T03:54:47;0.95;;;0.90;;
63112;SDS011;49206;48.020;21.378;2023-04-12T03:55:58;1.58;;;0.98;;
63112;SDS011;49206;48.020;21.378;2023-04-12T03:57:04;1.77;;;1.20;;
63112;SDS011;49206;48.020;21.378;2023-04-12T03:58:20;1.23;;;1.13;;
63112;SDS011;49206;48.020;21.378;2023-04-12T03:59:23;1.77;;;0.82;;
63112;SDS011;49206;48.020;21.378;2023-04-12T04:00:25;1.80;;;1.27;;
63112;SDS011;49206;48.020;21.378;2023-04-12T04:01:48;1.52;;;1.25;;
63112;SDS011;49206;48.020;21.378;2023-04-12T04:02:51;1.13;;;1.13;;
63112;SDS011;49206;48.020;21.378;2023-04-12T04:03:53;1.17;;;1.08;;
63112;SDS011;49206;48.020;21.378;2023-04-12T04:04:58;1.05;;;1.00;;
63112;SDS011;49206;48.020;21.378;2023-04-12T04:06:03;1.45;;;1.13;;
63112;SDS011;49206;48.020;21.378;2023-04-12T04:07:06;1.00;;;1.00;;
63112;SDS011;49206;48.020;21.378;2023-04-12T04:08:15;1.25;;;0.98;;
63112;SDS011;49206;48.020;21.378;2023-04-12T04:09:25;1.25;;;1.15;;
63112;SDS011;49206;48.020;21.378;2023-04-12T04:10:28;1.63;;;1.08;;
63112;SDS011;49206;48.020;21.378;2023-04-12T04:11:31;1.33;;;1.20;;
63112;SDS011;49206;48.020;21.378;2023-04-12T04:12:39;1.50;;;1.00;;
63112;SDS011;49206;48.020;21.378;2023-04-12T04:13:45;1.17;;;1.17;;
63112;SDS011;49206;48.020;21.378;2023-04-12T04:14:52;2.17;;;1.30;;
63112;SDS011;49206;48.020;21.378;2023-04-12T04:16:05;1.98;;;1.50;;
63112;SDS011;49206;48.020;21.378;2023-04-12T04:17:13;4.80;;;1.38;;
63112;SDS011;49206;48.020;21.378;2023-04-12T04:18:15;1.30;;;1.20;;
63112;SDS011;49206;48.020;21.378;2023-04-12T04:19:21;2.15;;;1.23;;
63112;SDS011;49206;48.020;21.378;2023-04-12T04:21:28;2.35;;;0.95;;
63112;SDS011;49206;48.020;21.378;2023-04-12T04:22:34;2.63;;;0.85;;
63112;SDS011;49206;48.020;21.378;2023-04-12T04:23:41;3.22;;;0.93;;
63112;SDS011;49206;48.020;21.378;2023-04-12T04:24:51;1.23;;;1.23;;
63112;SDS011;49206;48.020;21.378;2023-04-12T04:25:53;1.20;;;1.00;;
63112;SDS011;49206;48.020;21.378;2023-04-12T04:26:58;1.27;;;0.90;;
63112;SDS011;49206;48.020;21.378;2023-04-12T04:28:01;1.10;;;1.00;;
63112;SDS011;49206;48.020;21.378;2023-04-12T04:29:06;1.30;;;1.20;;
63112;SDS011;49206;48.020;21.378;2023-04-12T04:31:30;1.00;;;1.00;;
63112;SDS011;49206;48.020;21.378;2023-04-12T04:32:41;0.80;;;0.80;;
63112;SDS011;49206;48.020;21.378;2023-04-12T04:33:44;1.40;;;0.73;;
63112;SDS011;49206;48.020;21.378;2023-04-12T04:34:47;1.20;;;1.10;;
63112;SDS011;49206;48.020;21.378;2023-04-12T04:35:51;1.35;;;1.17;;
63112;SDS011;49206;48.020;21.378;2023-04-12T04:37:01;1.33;;;1.20;;
63112;SDS011;49206;48.020;21.378;2023-04-12T04:38:04;1.27;;;1.05;;
63112;SDS011;49206;48.020;21.378;2023-04-12T04:39:06;2.47;;;1.38;;
63112;SDS011;49206;48.020;21.378;2023-04-12T04:40:14;0.80;;;0.80;;
63112;SDS011;49206;48.020;21.378;2023-04-12T04:41:19;0.80;;;0.80;;
63112;SDS011;49206;48.020;21.378;2023-04-12T04:42:36;1.02;;;1.02;;
63112;SDS011;49206;48.020;21.378;2023-04-12T04:43:44;0.90;;;0.90;;
63112;SDS011;49206;48.020;21.378;2023-04-12T04:44:49;0.95;;;0.93;;
63112;SDS011;49206;48.020;21.378;2023-04-12T04:45:52;1.00;;;1.00;;
63112;SDS011;49206;48.020;21.378;2023-04-12T04:46:56;1.02;;;1.02;;
63112;SDS011;49206;48.020;21.378;2023-04-12T04:48:00;1.15;;;0.88;;
63112;SDS011;49206;48.020;21.378;2023-04-12T04:49:05;1.02;;;1.02;;
63112;SDS011;49206;48.020;21.378;2023-04-12T04:50:08;0.80;;;0.80;;
63112;SDS011;49206;48.020;21.378;2023-04-12T04:51:12;1.00;;;0.95;;
63112;SDS011;49206;48.020;21.378;2023-04-12T04:52:16;0.98;;;0.98;;
63112;SDS011;49206;48.020;21.378;2023-04-12T04:53:20;1.63;;;0.98;;
63112;SDS011;49206;48.020;21.378;2023-04-12T04:54:23;1.10;;;1.10;;
63112;SDS011;49206;48.020;21.378;2023-04-12T04:55:26;0.90;;;0.90;;
63112;SDS011;49206;48.020;21.378;2023-04-12T04:56:30;1.20;;;0.95;;
63112;SDS011;49206;48.020;21.378;2023-04-12T04:57:33;1.58;;;1.25;;
63112;SDS011;49206;48.020;21.378;2023-04-12T04:58:37;1.08;;;1.05;;
63112;SDS011;49206;48.020;21.378;2023-04-12T04:59:40;1.35;;;1.25;;
63112;SDS011;49206;48.020;21.378;2023-04-12T05:00:48;1.40;;;1.30;;
63112;SDS011;49206;48.020;21.378;2023-04-12T05:01:52;1.65;;;1.23;;
63112;SDS011;49206;48.020;21.378;2023-04-12T05:02:55;1.20;;;1.20;;
63112;SDS011;49206;48.020;21.378;2023-04-12T05:04:02;1.50;;;1.40;;
63112;SDS011;49206;48.020;21.378;2023-04-12T05:05:06;3.13;;;2.15;;
63112;SDS011;49206;48.020;21.378;2023-04-12T05:06:09;4.53;;;2.55;;
63112;SDS011;49206;48.020;21.378;2023-04-12T05:07:12;8.25;;;3.70;;
63112;SDS011;49206;48.020;21.378;2023-04-12T05:08:19;11.65;;;5.78;;
63112;SDS011;49206;48.020;21.378;2023-04-12T05:09:25;6.68;;;4.07;;
63112;SDS011;49206;48.020;21.378;2023-04-12T05:10:30;6.20;;;3.97;;
63112;SDS011;49206;48.020;21.378;2023-04-12T05:11:36;4.85;;;3.75;;
63112;SDS011;49206;48.020;21.378;2023-04-12T05:12:43;2.40;;;2.20;;
63112;SDS011;49206;48.020;21.378;2023-04-12T05:13:48;2.10;;;1.90;;
63112;SDS011;49206;48.020;21.378;2023-04-12T05:14:50;1.92;;;1.75;;
63112;SDS011;49206;48.020;21.378;2023-04-12T05:15:53;2.65;;;2.10;;
63112;SDS011;49206;48.020;21.378;2023-04-12T05:16:56;3.75;;;3.33;;
63112;SDS011;49206;48.020;21.378;2023-04-12T05:18:00;4.15;;;3.42;;
63112;SDS011;49206;48.020;21.378;2023-04-12T05:19:04;3.55;;;3.25;;
63112;SDS011;49206;48.020;21.378;2023-04-12T05:20:08;3.08;;;2.75;;
63112;SDS011;49206;48.020;21.378;2023-04-12T05:21:14;1.80;;;1.70;;
63112;SDS011;49206;48.020;21.378;2023-04-12T05:22:17;1.80;;;1.70;;
63112;SDS011;49206;48.020;21.378;2023-04-12T05:23:22;2.25;;;1.80;;
63112;SDS011;49206;48.020;21.378;2023-04-12T05:24:26;2.67;;;2.10;;
63112;SDS011;49206;48.020;21.378;2023-04-12T05:25:31;2.70;;;1.67;;
63112;SDS011;49206;48.020;21.378;2023-04-12T05:26:40;2.38;;;2.22;;
63112;SDS011;49206;48.020;21.378;2023-04-12T05:27:47;1.98;;;1.88;;
63112;SDS011;49206;48.020;21.378;2023-04-12T05:28:53;3.83;;;1.85;;
63112;SDS011;49206;48.020;21.378;2023-04-12T05:29:56;2.42;;;1.80;;
63112;SDS011;49206;48.020;21.378;2023-04-12T05:31:00;1.73;;;1.63;;
63112;SDS011;49206;48.020;21.378;2023-04-12T05:32:10;2.40;;;1.73;;
63112;SDS011;49206;48.020;21.378;2023-04-12T05:33:12;3.10;;;2.75;;
63112;SDS011;49206;48.020;21.378;2023-04-12T05:34:19;3.70;;;3.03;;
63112;SDS011;49206;48.020;21.378;2023-04-12T05:35:32;2.40;;;2.15;;
63112;SDS011;49206;48.020;21.378;2023-04-12T05:36:38;2.78;;;2.30;;
63112;SDS011;49206;48.020;21.378;2023-04-12T05:37:42;3.00;;;2.70;;
63112;SDS011;49206;48.020;21.378;2023-04-12T05:38:47;2.33;;;2.20;;
63112;SDS011;49206;48.020;21.378;2023-04-12T05:39:50;2.30;;;2.10;;
63112;SDS011;49206;48.020;21.378;2023-04-12T05:40:53;3.22;;;2.60;;
63112;SDS011;49206;48.020;21.378;2023-04-12T05:41:57;2.50;;;2.00;;
63112;SDS011;49206;48.020;21.378;2023-04-12T05:43:01;2.33;;;2.13;;
63112;SDS011;49206;48.020;21.378;2023-04-12T05:44:14;1.90;;;1.80;;
63112;SDS011;49206;48.020;21.378;2023-04-12T05:45:17;2.42;;;2.22;;
63112;SDS011;49206;48.020;21.378;2023-04-12T05:46:19;2.88;;;2.50;;
63112;SDS011;49206;48.020;21.378;2023-04-12T05:47:24;2.60;;;2.40;;
63112;SDS011;49206;48.020;21.378;2023-04-12T05:48:29;2.72;;;2.53;;
63112;SDS011;49206;48.020;21.378;2023-04-12T05:49:35;3.67;;;3.38;;
63112;SDS011;49206;48.020;21.378;2023-04-12T05:50:49;3.20;;;2.90;;
63112;SDS011;49206;48.020;21.378;2023-04-12T05:52:01;5.30;;;4.07;;
63112;SDS011;49206;48.020;21.378;2023-04-12T05:53:04;7.85;;;6.22;;
63112;SDS011;49206;48.020;21.378;2023-04-12T05:54:08;6.38;;;4.72;;
63112;SDS011;49206;48.020;21.378;2023-04-12T05:56:19;4.28;;;3.80;;
63112;SDS011;49206;48.020;21.378;2023-04-12T05:57:24;3.22;;;2.80;;
63112;SDS011;49206;48.020;21.378;2023-04-12T05:59:32;2.47;;;2.28;;
63112;SDS011;49206;48.020;21.378;2023-04-12T06:00:35;3.13;;;2.60;;
63112;SDS011;49206;48.020;21.378;2023-04-12T06:01:38;3.08;;;2.75;;
63112;SDS011;49206;48.020;21.378;2023-04-12T06:02:44;6.63;;;2.90;;
63112;SDS011;49206;48.020;21.378;2023-04-12T06:03:47;2.47;;;2.22;;
63112;SDS011;49206;48.020;21.378;2023-04-12T06:04:51;2.38;;;2.08;;
63112;SDS011;49206;48.020;21.378;2023-04-12T06:05:55;2.70;;;2.50;;
63112;SDS011;49206;48.020;21.378;2023-04-12T06:06:58;2.92;;;2.42;;
63112;SDS011;49206;48.020;21.378;2023-04-12T06:08:01;2.40;;;2.20;;
63112;SDS011;49206;48.020;21.378;2023-04-12T06:09:04;2.47;;;2.00;;
63112;SDS011;49206;48.020;21.378;2023-04-12T06:10:07;2.42;;;2.22;;
63112;SDS011;49206;48.020;21.378;2023-04-12T06:11:11;2.42;;;2.22;;
63112;SDS011;49206;48.020;21.378;2023-04-12T06:13:24;2.63;;;1.98;;
63112;SDS011;49206;48.020;21.378;2023-04-12T06:14:28;2.20;;;2.03;;
63112;SDS011;49206;48.020;21.378;2023-04-12T06:15:31;2.85;;;2.03;;
63112;SDS011;49206;48.020;21.378;2023-04-12T06:16:34;1.83;;;1.67;;
63112;SDS011;49206;48.020;21.378;2023-04-12T06:17:37;2.20;;;2.10;;
63112;SDS011;49206;48.020;21.378;2023-04-12T06:18:40;2.10;;;1.98;;
63112;SDS011;49206;48.020;21.378;2023-04-12T06:19:46;3.13;;;2.83;;
63112;SDS011;49206;48.020;21.378;2023-04-12T06:20:50;2.17;;;2.05;;
63112;SDS011;49206;48.020;21.378;2023-04-12T06:21:53;1.98;;;1.88;;
63112;SDS011;49206;48.020;21.378;2023-04-12T06:22:56;4.00;;;2.70;;
63112;SDS011;49206;48.020;21.378;2023-04-12T06:23:59;5.20;;;3.05;;
63112;SDS011;49206;48.020;21.378;2023-04-12T06:25:04;8.07;;;4.40;;
63112;SDS011;49206;48.020;21.378;2023-04-12T06:27:14;6.10;;;4.13;;
63112;SDS011;49206;48.020;21.378;2023-04-12T06:28:17;6.53;;;3.58;;
63112;SDS011;49206;48.020;21.378;2023-04-12T06:29:24;9.52;;;5.10;;
63112;SDS011;49206;48.020;21.378;2023-04-12T06:30:27;13.32;;;6.18;;
63112;SDS011;49206;48.020;21.378;2023-04-12T06:31:30;8.93;;;5.22;;
63112;SDS011;49206;48.020;21.378;2023-04-12T06:32:34;3.28;;;2.97;;
63112;SDS011;49206;48.020;21.378;2023-04-12T06:33:37;5.28;;;4.15;;
63112;SDS011;49206;48.020;21.378;2023-04-12T06:34:46;4.75;;;3.78;;
63112;SDS011;49206;48.020;21.378;2023-04-12T06:35:49;3.72;;;3.10;;
63112;SDS011;49206;48.020;21.378;2023-04-12T06:36:53;5.88;;;3.97;;
63112;SDS011;49206;48.020;21.378;2023-04-12T06:37:58;7.38;;;4.65;;
63112;SDS011;49206;48.020;21.378;2023-04-12T06:39:02;5.03;;;4.10;;
63112;SDS011;49206;48.020;21.378;2023-04-12T06:40:06;9.10;;;4.93;;
63112;SDS011;49206;48.020;21.378;2023-04-12T06:41:28;6.28;;;4.13;;
63112;SDS011;49206;48.020;21.378;2023-04-12T06:42:34;8.32;;;4.05;;
63112;SDS011;49206;48.020;21.378;2023-04-12T06:43:37;8.90;;;5.00;;
63112;SDS011;49206;48.020;21.378;2023-04-12T06:44:40;11.13;;;5.50;;
63112;SDS011;49206;48.020;21.378;2023-04-12T06:45:43;16.25;;;7.13;;
63112;SDS011;49206;48.020;21.378;2023-04-12T06:46:46;17.55;;;8.32;;
63112;SDS011;49206;48.020;21.378;2023-04-12T06:47:49;14.50;;;7.93;;
63112;SDS011;49206;48.020;21.378;2023-04-12T06:48:52;13.85;;;7.65;;
63112;SDS011;49206;48.020;21.378;2023-04-12T06:49:55;12.95;;;6.78;;